sensor_id;sensor_type;location;lat;lon;timestamp;pressure;altitude;pressure_sealevel;temperature;humidity
33075;BME280;19433;51.292;6.868;2023-01-28T01:52:30;101572.91;;;0.76;100.00
33075;BME280;19433;51.292;6.868;2023-01-28T03:08:04;101614.22;;;0.45;100.00
33075;BME280;19433;51.292;6.868;2023-01-28T03:34:09;101615.50;;;0.52;100.00
33075;BME280;19433;51.292;6.868;2023-01-28T05:15:10;101639.88;;;0.03;97.07
33075;BME280;19433;51.292;6.868;2023-01-28T05:43:30;101663.22;;;-0.20;98.80
33075;BME280;19433;51.292;6.868;2023-01-28T05:53:41;101664.81;;;-0.30;94.15
33075;BME280;19433;51.292;6.868;2023-01-28T07:00:46;101676.38;;;-0.14;91.33
33075;BME280;19433;51.292;6.868;2023-01-28T07:03:18;101697.63;;;-0.33;94.28
33075;BME280;19433;51.292;6.868;2023-01-28T07:05:43;101703.31;;;-0.24;94.42
33075;BME280;19433;51.292;6.868;2023-01-28T07:08:09;101698.06;;;-0.27;92.17
33075;BME280;19433;51.292;6.868;2023-01-28T07:10:34;101704.16;;;-0.23;92.83
33075;BME280;19433;51.292;6.868;2023-01-28T07:12:59;101698.75;;;-0.23;94.54
33075;BME280;19433;51.292;6.868;2023-01-28T07:15:25;101696.44;;;-0.29;92.51
33075;BME280;19433;51.292;6.868;2023-01-28T07:17:50;101704.09;;;-0.49;92.73
33075;BME280;19433;51.292;6.868;2023-01-28T07:20:17;101709.09;;;-0.43;92.70
33075;BME280;19433;51.292;6.868;2023-01-28T07:26:11;101713.25;;;-0.37;91.97
33075;BME280;19433;51.292;6.868;2023-01-28T07:28:37;101698.00;;;-0.52;90.91
33075;BME280;19433;51.292;6.868;2023-01-28T07:31:02;101707.38;;;-0.44;90.96
33075;BME280;19433;51.292;6.868;2023-01-28T07:33:27;101703.63;;;-0.55;91.26
33075;BME280;19433;51.292;6.868;2023-01-28T07:35:52;101712.28;;;-0.36;90.99
33075;BME280;19433;51.292;6.868;2023-01-28T07:38:18;101710.19;;;-0.45;91.43
33075;BME280;19433;51.292;6.868;2023-01-28T07:40:43;101703.84;;;-0.58;91.81
33075;BME280;19433;51.292;6.868;2023-01-28T07:43:09;101710.34;;;-0.61;91.89
33075;BME280;19433;51.292;6.868;2023-01-28T07:45:34;101709.06;;;-0.55;92.23
33075;BME280;19433;51.292;6.868;2023-01-28T07:48:05;101711.19;;;-0.46;91.38
33075;BME280;19433;51.292;6.868;2023-01-28T07:50:32;101709.09;;;-0.43;89.48
33075;BME280;19433;51.292;6.868;2023-01-28T07:53:01;101692.72;;;-0.41;88.98
33075;BME280;19433;51.292;6.868;2023-01-28T07:55:26;101717.63;;;-0.61;89.89
33075;BME280;19433;51.292;6.868;2023-01-28T08:00:56;101724.41;;;-0.42;87.81
33075;BME280;19433;51.292;6.868;2023-01-28T08:03:29;101727.09;;;-0.54;88.58
33075;BME280;19433;51.292;6.868;2023-01-28T08:05:55;101718.22;;;-0.44;87.63
33075;BME280;19433;51.292;6.868;2023-01-28T08:08:22;101734.03;;;-0.23;87.92
33075;BME280;19433;51.292;6.868;2023-01-28T08:10:48;101723.47;;;-0.28;87.38
33075;BME280;19433;51.292;6.868;2023-01-28T08:13:16;101731.50;;;-0.39;88.43
33075;BME280;19433;51.292;6.868;2023-01-28T08:15:42;101744.13;;;-0.25;90.92
33075;BME280;19433;51.292;6.868;2023-01-28T08:18:09;101750.91;;;-0.18;89.72
33075;BME280;19433;51.292;6.868;2023-01-28T08:20:34;101750.25;;;-0.09;88.32
33075;BME280;19433;51.292;6.868;2023-01-28T08:23:18;101763.75;;;0.05;90.29
33075;BME280;19433;51.292;6.868;2023-01-28T08:25:45;101772.59;;;0.21;88.02
33075;BME280;19433;51.292;6.868;2023-01-28T08:28:12;101766.44;;;0.45;88.03
33075;BME280;19433;51.292;6.868;2023-01-28T08:34:02;101765.47;;;0.46;90.46
33075;BME280;19433;51.292;6.868;2023-01-28T08:36:37;101770.25;;;0.42;89.02
33075;BME280;19433;51.292;6.868;2023-01-28T08:39:02;101778.41;;;0.29;87.63
33075;BME280;19433;51.292;6.868;2023-01-28T08:41:28;101768.91;;;0.22;87.18
33075;BME280;19433;51.292;6.868;2023-01-28T08:44:26;101770.16;;;0.44;86.81
33075;BME280;19433;51.292;6.868;2023-01-28T08:46:51;101762.66;;;0.60;88.47
33075;BME280;19433;51.292;6.868;2023-01-28T08:49:16;101774.72;;;0.56;86.08
33075;BME280;19433;51.292;6.868;2023-01-28T08:51:45;101787.44;;;0.68;84.87
33075;BME280;19433;51.292;6.868;2023-01-28T08:54:40;101796.34;;;0.83;86.95
33075;BME280;19433;51.292;6.868;2023-01-28T08:57:13;101797.66;;;0.90;87.41
33075;BME280;19433;51.292;6.868;2023-01-28T08:59:38;101808.94;;;1.09;85.13
33075;BME280;19433;51.292;6.868;2023-01-28T09:02:12;101809.81;;;1.10;83.36
33075;BME280;19433;51.292;6.868;2023-01-28T09:04:44;101810.78;;;1.09;84.16
33075;BME280;19433;51.292;6.868;2023-01-28T09:07:17;101823.00;;;1.03;82.65
33075;BME280;19433;51.292;6.868;2023-01-28T09:09:57;101826.06;;;0.86;83.34
33075;BME280;19433;51.292;6.868;2023-01-28T09:12:22;101833.16;;;0.76;86.25
33075;BME280;19433;51.292;6.868;2023-01-28T09:14:48;101823.41;;;0.46;81.53
33075;BME280;19433;51.292;6.868;2023-01-28T09:17:13;101831.88;;;0.02;84.25
33075;BME280;19433;51.292;6.868;2023-01-28T09:19:38;101830.63;;;0.08;86.07
33075;BME280;19433;51.292;6.868;2023-01-28T09:22:04;101836.63;;;0.13;85.17
33075;BME280;19433;51.292;6.868;2023-01-28T09:24:59;101833.56;;;0.17;85.69
33075;BME280;19433;51.292;6.868;2023-01-28T09:27:25;101840.25;;;0.26;85.88
33075;BME280;19433;51.292;6.868;2023-01-28T09:29:50;101837.41;;;0.27;88.37
33075;BME280;19433;51.292;6.868;2023-01-28T09:32:15;101848.13;;;0.56;88.47
33075;BME280;19433;51.292;6.868;2023-01-28T09:34:40;101839.44;;;0.89;83.67
33075;BME280;19433;51.292;6.868;2023-01-28T09:37:08;101835.63;;;1.04;85.64
33075;BME280;19433;51.292;6.868;2023-01-28T09:39:40;101840.19;;;1.16;81.79
33075;BME280;19433;51.292;6.868;2023-01-28T09:47:42;101842.25;;;1.25;83.37
33075;BME280;19433;51.292;6.868;2023-01-28T09:53:32;101852.38;;;1.36;81.05
33075;BME280;19433;51.292;6.868;2023-01-28T09:56:05;101860.66;;;1.09;79.70
33075;BME280;19433;51.292;6.868;2023-01-28T09:58:32;101869.69;;;0.59;80.58
33075;BME280;19433;51.292;6.868;2023-01-28T10:01:11;101866.63;;;0.63;82.72
33075;BME280;19433;51.292;6.868;2023-01-28T10:06:53;101847.63;;;0.89;81.66
33075;BME280;19433;51.292;6.868;2023-01-28T10:09:37;101849.34;;;1.02;84.44
33075;BME280;19433;51.292;6.868;2023-01-28T10:24:05;101847.09;;;1.58;81.05
33075;BME280;19433;51.292;6.868;2023-01-28T10:26:36;101843.91;;;1.64;77.33
33075;BME280;19433;51.292;6.868;2023-01-28T10:29:10;101840.75;;;1.21;81.02
33075;BME280;19433;51.292;6.868;2023-01-28T10:31:43;101838.91;;;1.22;79.88
33075;BME280;19433;51.292;6.868;2023-01-28T10:34:18;101831.88;;;1.80;79.83
33075;BME280;19433;51.292;6.868;2023-01-28T10:36:43;101827.34;;;1.91;79.12
33075;BME280;19433;51.292;6.868;2023-01-28T10:39:12;101816.69;;;2.12;76.92
33075;BME280;19433;51.292;6.868;2023-01-28T10:41:39;101820.25;;;2.36;77.46
33075;BME280;19433;51.292;6.868;2023-01-28T10:44:04;101829.88;;;2.29;75.26
33075;BME280;19433;51.292;6.868;2023-01-28T10:46:35;101835.34;;;2.05;78.46
33075;BME280;19433;51.292;6.868;2023-01-28T10:49:07;101830.44;;;2.10;78.13
33075;BME280;19433;51.292;6.868;2023-01-28T10:59:02;101838.13;;;2.17;74.79
33075;BME280;19433;51.292;6.868;2023-01-28T11:05:18;101858.16;;;2.28;73.95
33075;BME280;19433;51.292;6.868;2023-01-28T11:11:25;101846.88;;;2.33;76.68
33075;BME280;19433;51.292;6.868;2023-01-28T11:17:50;101862.09;;;2.24;78.39
33075;BME280;19433;51.292;6.868;2023-01-28T11:55:16;101839.34;;;1.03;79.05
33075;BME280;19433;51.292;6.868;2023-01-28T12:00:37;101830.34;;;1.39;80.74
33075;BME280;19433;51.292;6.868;2023-01-28T12:17:38;101818.47;;;1.53;77.33
33075;BME280;19433;51.292;6.868;2023-01-28T12:20:24;101827.94;;;1.47;78.16
33075;BME280;19433;51.292;6.868;2023-01-28T12:55:25;101749.16;;;3.06;68.59
33075;BME280;19433;51.292;6.868;2023-01-28T13:13:37;101717.50;;;1.19;76.55
33075;BME280;19433;51.292;6.868;2023-01-28T13:16:07;101727.06;;;1.72;76.67
33075;BME280;19433;51.292;6.868;2023-01-28T13:21:07;101745.94;;;3.12;71.87
33075;BME280;19433;51.292;6.868;2023-01-28T13:28:49;101759.88;;;4.28;66.62
33075;BME280;19433;51.292;6.868;2023-01-28T13:31:18;101762.06;;;4.34;65.11
33075;BME280;19433;51.292;6.868;2023-01-28T13:34:00;101751.47;;;4.19;65.98
33075;BME280;19433;51.292;6.868;2023-01-28T13:36:28;101752.44;;;3.66;65.50
33075;BME280;19433;51.292;6.868;2023-01-28T13:46:51;101759.38;;;2.01;71.51
33075;BME280;19433;51.292;6.868;2023-01-28T13:49:27;101768.44;;;1.54;73.62
33075;BME280;19433;51.292;6.868;2023-01-28T13:52:16;101777.44;;;1.30;74.20
33075;BME280;19433;51.292;6.868;2023-01-28T13:54:50;101766.59;;;1.18;75.83
33075;BME280;19433;51.292;6.868;2023-01-28T14:17:49;101778.06;;;0.47;79.75
33075;BME280;19433;51.292;6.868;2023-01-28T14:20:25;101787.22;;;0.71;80.88
33075;BME280;19433;51.292;6.868;2023-01-28T14:22:58;101769.09;;;1.08;77.47
33075;BME280;19433;51.292;6.868;2023-01-28T14:25:36;101765.47;;;1.57;75.56
33075;BME280;19433;51.292;6.868;2023-01-28T14:28:06;101750.22;;;1.67;75.00
33075;BME280;19433;51.292;6.868;2023-01-28T14:30:43;101751.94;;;1.92;73.39
33075;BME280;19433;51.292;6.868;2023-01-28T14:33:11;101746.06;;;1.85;75.09
33075;BME280;19433;51.292;6.868;2023-01-28T14:35:39;101730.50;;;1.63;76.02
33075;BME280;19433;51.292;6.868;2023-01-28T14:38:12;101739.06;;;1.46;73.96
33075;BME280;19433;51.292;6.868;2023-01-28T14:40:39;101730.25;;;1.19;75.42
33075;BME280;19433;51.292;6.868;2023-01-28T14:43:13;101710.09;;;1.21;75.74
33075;BME280;19433;51.292;6.868;2023-01-28T14:48:33;101727.25;;;0.85;76.58
33075;BME280;19433;51.292;6.868;2023-01-28T14:57:34;101701.50;;;0.53;78.33
33075;BME280;19433;51.292;6.868;2023-01-28T15:02:17;101699.44;;;0.18;80.92
33075;BME280;19433;51.292;6.868;2023-01-28T15:04:43;101716.72;;;0.05;82.27
33075;BME280;19433;51.292;6.868;2023-01-28T15:07:20;101728.66;;;0.02;82.84
33075;BME280;19433;51.292;6.868;2023-01-28T15:09:58;101734.13;;;0.15;80.67
33075;BME280;19433;51.292;6.868;2023-01-28T15:12:23;101726.09;;;0.26;79.30
33075;BME280;19433;51.292;6.868;2023-01-28T15:14:49;101723.78;;;0.07;82.17
33075;BME280;19433;51.292;6.868;2023-01-28T15:17:22;101732.13;;;-0.09;83.61
33075;BME280;19433;51.292;6.868;2023-01-28T15:19:51;101743.56;;;0.09;81.43
33075;BME280;19433;51.292;6.868;2023-01-28T15:22:18;101746.56;;;-0.08;82.04
33075;BME280;19433;51.292;6.868;2023-01-28T15:24:48;101741.31;;;-0.24;81.92
33075;BME280;19433;51.292;6.868;2023-01-28T15:27:18;101746.41;;;-0.32;82.80
33075;BME280;19433;51.292;6.868;2023-01-28T15:29:54;101761.06;;;-0.34;83.29
33075;BME280;19433;51.292;6.868;2023-01-28T15:32:29;101748.31;;;-0.47;84.03
33075;BME280;19433;51.292;6.868;2023-01-28T15:34:58;101738.56;;;-0.63;85.68
33075;BME280;19433;51.292;6.868;2023-01-28T15:37:24;101749.09;;;-0.59;85.24
33075;BME280;19433;51.292;6.868;2023-01-28T15:40:00;101748.19;;;-0.72;86.03
33075;BME280;19433;51.292;6.868;2023-01-28T15:42:26;101758.44;;;-0.63;85.57
33075;BME280;19433;51.292;6.868;2023-01-28T15:44:53;101767.94;;;-0.70;85.96
33075;BME280;19433;51.292;6.868;2023-01-28T15:47:28;101764.38;;;-0.85;86.52
33075;BME280;19433;51.292;6.868;2023-01-28T15:50:00;101767.59;;;-1.07;89.67
33075;BME280;19433;51.292;6.868;2023-01-28T15:52:33;101762.41;;;-1.24;90.36
33075;BME280;19433;51.292;6.868;2023-01-28T15:54:59;101770.13;;;-1.32;90.83
33075;BME280;19433;51.292;6.868;2023-01-28T15:57:28;101781.66;;;-1.43;92.84
33075;BME280;19433;51.292;6.868;2023-01-28T16:00:17;101778.34;;;-1.62;94.06
33075;BME280;19433;51.292;6.868;2023-01-28T16:02:48;101771.47;;;-1.67;94.73
33075;BME280;19433;51.292;6.868;2023-01-28T16:05:34;101782.09;;;-1.64;95.22
33075;BME280;19433;51.292;6.868;2023-01-28T16:08:02;101780.06;;;-1.75;95.36
33075;BME280;19433;51.292;6.868;2023-01-28T16:10:32;101788.06;;;-1.88;96.01
33075;BME280;19433;51.292;6.868;2023-01-28T16:15:26;101794.38;;;-1.87;96.79
33075;BME280;19433;51.292;6.868;2023-01-28T16:17:51;101790.34;;;-1.96;97.08
33075;BME280;19433;51.292;6.868;2023-01-28T16:20:20;101796.28;;;-1.89;96.71
33075;BME280;19433;51.292;6.868;2023-01-28T16:22:46;101806.34;;;-1.91;97.22
33075;BME280;19433;51.292;6.868;2023-01-28T16:25:25;101830.00;;;-1.95;97.79
33075;BME280;19433;51.292;6.868;2023-01-28T16:27:51;101825.84;;;-2.00;98.32
33075;BME280;19433;51.292;6.868;2023-01-28T16:30:17;101803.63;;;-2.21;98.66
33075;BME280;19433;51.292;6.868;2023-01-28T16:32:43;101800.66;;;-2.32;99.18
33075;BME280;19433;51.292;6.868;2023-01-28T16:37:38;101810.78;;;-2.36;99.99
33075;BME280;19433;51.292;6.868;2023-01-28T16:40:04;101818.28;;;-2.41;100.00
33075;BME280;19433;51.292;6.868;2023-01-28T16:42:31;101813.59;;;-2.53;100.00
33075;BME280;19433;51.292;6.868;2023-01-28T16:44:57;101835.94;;;-2.50;100.00
33075;BME280;19433;51.292;6.868;2023-01-28T16:47:22;101832.69;;;-2.56;100.00
33075;BME280;19433;51.292;6.868;2023-01-28T16:49:47;101828.97;;;-2.54;100.00
33075;BME280;19433;51.292;6.868;2023-01-28T16:52:13;101826.50;;;-2.74;100.00
33075;BME280;19433;51.292;6.868;2023-01-28T16:54:41;101827.81;;;-2.81;100.00
33075;BME280;19433;51.292;6.868;2023-01-28T16:57:10;101831.22;;;-2.77;100.00
33075;BME280;19433;51.292;6.868;2023-01-28T16:59:37;101817.78;;;-2.79;100.00
33075;BME280;19433;51.292;6.868;2023-01-28T17:02:03;101824.41;;;-2.85;100.00
33075;BME280;19433;51.292;6.868;2023-01-28T17:04:28;101815.59;;;-2.88;100.00
33075;BME280;19433;51.292;6.868;2023-01-28T17:06:53;101822.63;;;-3.01;100.00
33075;BME280;19433;51.292;6.868;2023-01-28T17:09:19;101813.69;;;-3.19;100.00
33075;BME280;19433;51.292;6.868;2023-01-28T17:11:44;101817.63;;;-3.25;100.00
33075;BME280;19433;51.292;6.868;2023-01-28T17:14:09;101826.44;;;-3.21;100.00
33075;BME280;19433;51.292;6.868;2023-01-28T17:16:35;101806.81;;;-3.25;100.00
33075;BME280;19433;51.292;6.868;2023-01-28T17:19:00;101815.25;;;-3.31;100.00
33075;BME280;19433;51.292;6.868;2023-01-28T17:21:26;101822.53;;;-3.15;100.00
33075;BME280;19433;51.292;6.868;2023-01-28T17:23:51;101826.78;;;-3.27;100.00
33075;BME280;19433;51.292;6.868;2023-01-28T17:26:16;101806.69;;;-3.39;100.00
33075;BME280;19433;51.292;6.868;2023-01-28T17:28:42;101794.38;;;-3.44;100.00
33075;BME280;19433;51.292;6.868;2023-01-28T17:31:09;101782.69;;;-3.45;100.00
33075;BME280;19433;51.292;6.868;2023-01-28T17:33:36;101794.94;;;-3.38;100.00
33075;BME280;19433;51.292;6.868;2023-01-28T17:36:02;101792.31;;;-3.39;100.00
33075;BME280;19433;51.292;6.868;2023-01-28T17:38:27;101785.47;;;-3.46;100.00
33075;BME280;19433;51.292;6.868;2023-01-28T17:40:52;101795.75;;;-3.53;100.00
33075;BME280;19433;51.292;6.868;2023-01-28T17:43:18;101811.38;;;-3.42;100.00
33075;BME280;19433;51.292;6.868;2023-01-28T17:45:43;101816.22;;;-3.49;100.00
33075;BME280;19433;51.292;6.868;2023-01-28T17:48:09;101831.34;;;-3.62;100.00
33075;BME280;19433;51.292;6.868;2023-01-28T17:50:37;101827.69;;;-3.61;100.00
33075;BME280;19433;51.292;6.868;2023-01-28T17:53:03;101820.53;;;-3.79;100.00
33075;BME280;19433;51.292;6.868;2023-01-28T17:55:29;101840.81;;;-3.88;100.00
33075;BME280;19433;51.292;6.868;2023-01-28T17:57:55;101840.97;;;-3.91;100.00
33075;BME280;19433;51.292;6.868;2023-01-28T18:00:20;101830.22;;;-4.10;100.00
33075;BME280;19433;51.292;6.868;2023-01-28T18:02:49;101850.50;;;-4.01;100.00
33075;BME280;19433;51.292;6.868;2023-01-28T18:05:16;101844.94;;;-3.98;100.00
33075;BME280;19433;51.292;6.868;2023-01-28T18:07:41;101836.81;;;-3.81;100.00
33075;BME280;19433;51.292;6.868;2023-01-28T18:10:08;101851.03;;;-3.77;100.00
33075;BME280;19433;51.292;6.868;2023-01-28T18:12:34;101856.22;;;-3.90;100.00
33075;BME280;19433;51.292;6.868;2023-01-28T18:14:59;101855.00;;;-4.02;100.00
33075;BME280;19433;51.292;6.868;2023-01-28T18:17:24;101875.31;;;-3.95;100.00
33075;BME280;19433;51.292;6.868;2023-01-28T18:19:53;101864.53;;;-3.95;100.00
33075;BME280;19433;51.292;6.868;2023-01-28T18:22:19;101851.84;;;-3.75;100.00
33075;BME280;19433;51.292;6.868;2023-01-28T18:24:44;101858.69;;;-3.68;100.00
33075;BME280;19433;51.292;6.868;2023-01-28T18:27:09;101864.16;;;-3.70;100.00
33075;BME280;19433;51.292;6.868;2023-01-28T18:29:35;101861.69;;;-3.74;100.00
33075;BME280;19433;51.292;6.868;2023-01-28T18:32:00;101872.09;;;-3.84;100.00
33075;BME280;19433;51.292;6.868;2023-01-28T18:34:27;101861.22;;;-4.00;100.00
33075;BME280;19433;51.292;6.868;2023-01-28T18:36:53;101858.59;;;-3.84;100.00
33075;BME280;19433;51.292;6.868;2023-01-28T18:39:21;101854.88;;;-3.99;100.00
33075;BME280;19433;51.292;6.868;2023-01-28T18:41:47;101855.63;;;-4.14;100.00
33075;BME280;19433;51.292;6.868;2023-01-28T18:44:13;101847.25;;;-4.27;100.00
33075;BME280;19433;51.292;6.868;2023-01-28T18:46:39;101866.06;;;-4.25;100.00
33075;BME280;19433;51.292;6.868;2023-01-28T18:49:05;101879.81;;;-4.30;100.00
33075;BME280;19433;51.292;6.868;2023-01-28T18:51:30;101875.94;;;-4.43;100.00
33075;BME280;19433;51.292;6.868;2023-01-28T18:53:57;101874.22;;;-4.44;100.00
33075;BME280;19433;51.292;6.868;2023-01-28T18:56:23;101874.63;;;-4.34;100.00
33075;BME280;19433;51.292;6.868;2023-01-28T18:58:53;101885.41;;;-4.34;100.00
33075;BME280;19433;51.292;6.868;2023-01-28T19:01:19;101881.84;;;-4.35;100.00
33075;BME280;19433;51.292;6.868;2023-01-28T19:03:44;101877.31;;;-4.34;100.00
33075;BME280;19433;51.292;6.868;2023-01-28T19:06:09;101886.16;;;-4.49;100.00
33075;BME280;19433;51.292;6.868;2023-01-28T19:08:36;101878.94;;;-4.30;100.00
33075;BME280;19433;51.292;6.868;2023-01-28T19:11:02;101877.19;;;-4.31;100.00
33075;BME280;19433;51.292;6.868;2023-01-28T19:13:27;101871.47;;;-4.25;100.00
33075;BME280;19433;51.292;6.868;2023-01-28T19:15:53;101877.31;;;-4.34;100.00
33075;BME280;19433;51.292;6.868;2023-01-28T19:18:19;101868.56;;;-4.39;100.00
33075;BME280;19433;51.292;6.868;2023-01-28T19:20:44;101876.66;;;-4.39;100.00
33075;BME280;19433;51.292;6.868;2023-01-28T19:23:10;101878.84;;;-4.29;100.00
33075;BME280;19433;51.292;6.868;2023-01-28T19:25:39;101885.22;;;-4.48;100.00
33075;BME280;19433;51.292;6.868;2023-01-28T19:28:06;101879.38;;;-4.58;100.00
33075;BME280;19433;51.292;6.868;2023-01-28T19:30:33;101880.97;;;-4.73;100.00
33075;BME280;19433;51.292;6.868;2023-01-28T19:33:00;101882.06;;;-4.58;100.00
33075;BME280;19433;51.292;6.868;2023-01-28T19:35:25;101881.63;;;-4.30;100.00
33075;BME280;19433;51.292;6.868;2023-01-28T19:37:52;101876.59;;;-4.38;100.00
33075;BME280;19433;51.292;6.868;2023-01-28T19:40:17;101873.97;;;-4.39;100.00
33075;BME280;19433;51.292;6.868;2023-01-28T19:42:43;101867.75;;;-4.41;100.00
33075;BME280;19433;51.292;6.868;2023-01-28T19:45:09;101891.38;;;-4.28;100.00
33075;BME280;19433;51.292;6.868;2023-01-28T19:47:34;101878.19;;;-4.34;100.00
33075;BME280;19433;51.292;6.868;2023-01-28T19:49:59;101877.78;;;-4.43;100.00
33075;BME280;19433;51.292;6.868;2023-01-28T19:52:25;101892.16;;;-4.26;100.00
33075;BME280;19433;51.292;6.868;2023-01-28T19:54:50;101898.63;;;-4.11;100.00
33075;BME280;19433;51.292;6.868;2023-01-28T19:57:15;101885.47;;;-4.17;100.00
33075;BME280;19433;51.292;6.868;2023-01-28T19:59:41;101897.41;;;-4.22;100.00
33075;BME280;19433;51.292;6.868;2023-01-28T20:02:08;101906.31;;;-4.39;100.00
33075;BME280;19433;51.292;6.868;2023-01-28T20:04:33;101898.69;;;-4.48;100.00
33075;BME280;19433;51.292;6.868;2023-01-28T20:06:58;101898.34;;;-4.59;100.00
33075;BME280;19433;51.292;6.868;2023-01-28T20:09:24;101917.84;;;-4.54;100.00
33075;BME280;19433;51.292;6.868;2023-01-28T20:11:49;101906.56;;;-4.63;100.00
33075;BME280;19433;51.292;6.868;2023-01-28T20:14:14;101902.63;;;-4.74;100.00
33075;BME280;19433;51.292;6.868;2023-01-28T20:16:42;101903.94;;;-4.64;100.00
33075;BME280;19433;51.292;6.868;2023-01-28T20:19:12;101899.44;;;-4.64;100.00
33075;BME280;19433;51.292;6.868;2023-01-28T20:21:39;101893.44;;;-4.70;100.00
33075;BME280;19433;51.292;6.868;2023-01-28T20:24:04;101884.38;;;-4.88;100.00
33075;BME280;19433;51.292;6.868;2023-01-28T20:26:33;101895.25;;;-4.89;100.00
33075;BME280;19433;51.292;6.868;2023-01-28T20:29:18;101884.25;;;-4.66;100.00
33075;BME280;19433;51.292;6.868;2023-01-28T20:31:44;101880.75;;;-4.49;100.00
33075;BME280;19433;51.292;6.868;2023-01-28T20:34:15;101890.00;;;-4.36;100.00
33075;BME280;19433;51.292;6.868;2023-01-28T20:36:41;101885.50;;;-4.54;100.00
33075;BME280;19433;51.292;6.868;2023-01-28T20:39:07;101889.53;;;-4.44;100.00
33075;BME280;19433;51.292;6.868;2023-01-28T20:41:32;101886.44;;;-4.37;100.00
33075;BME280;19433;51.292;6.868;2023-01-28T20:43:57;101876.44;;;-4.35;100.00
33075;BME280;19433;51.292;6.868;2023-01-28T20:46:29;101872.53;;;-4.46;100.00
33075;BME280;19433;51.292;6.868;2023-01-28T20:48:56;101862.09;;;-4.54;100.00
33075;BME280;19433;51.292;6.868;2023-01-28T20:51:24;101873.59;;;-4.32;100.00
33075;BME280;19433;51.292;6.868;2023-01-28T20:53:50;101870.44;;;-4.22;100.00
33075;BME280;19433;51.292;6.868;2023-01-28T20:56:17;101866.66;;;-4.18;100.00
33075;BME280;19433;51.292;6.868;2023-01-28T20:58:44;101852.38;;;-4.39;100.00
33075;BME280;19433;51.292;6.868;2023-01-28T21:01:18;101854.75;;;-4.50;100.00
33075;BME280;19433;51.292;6.868;2023-01-28T21:03:43;101853.88;;;-4.70;100.00
33075;BME280;19433;51.292;6.868;2023-01-28T21:06:08;101870.63;;;-4.63;100.00
33075;BME280;19433;51.292;6.868;2023-01-28T21:08:34;101857.09;;;-4.62;100.00
33075;BME280;19433;51.292;6.868;2023-01-28T21:11:03;101857.75;;;-4.75;100.00
33075;BME280;19433;51.292;6.868;2023-01-28T21:13:29;101846.38;;;-4.82;100.00
33075;BME280;19433;51.292;6.868;2023-01-28T21:15:55;101853.31;;;-4.76;100.00
33075;BME280;19433;51.292;6.868;2023-01-28T21:18:27;101846.66;;;-4.88;100.00
33075;BME280;19433;51.292;6.868;2023-01-28T21:20:53;101849.44;;;-4.89;100.00
33075;BME280;19433;51.292;6.868;2023-01-28T21:23:21;101843.00;;;-4.87;100.00
33075;BME280;19433;51.292;6.868;2023-01-28T21:25:46;101829.03;;;-4.95;100.00
33075;BME280;19433;51.292;6.868;2023-01-28T21:28:14;101834.44;;;-4.95;100.00
33075;BME280;19433;51.292;6.868;2023-01-28T21:30:39;101827.81;;;-5.07;100.00
33075;BME280;19433;51.292;6.868;2023-01-28T21:33:05;101834.88;;;-5.04;100.00
33075;BME280;19433;51.292;6.868;2023-01-28T21:35:31;101830.97;;;-5.17;100.00
33075;BME280;19433;51.292;6.868;2023-01-28T21:37:59;101827.91;;;-5.28;100.00
33075;BME280;19433;51.292;6.868;2023-01-28T21:40:24;101830.16;;;-5.38;100.00
33075;BME280;19433;51.292;6.868;2023-01-28T21:42:52;101821.28;;;-5.40;100.00
33075;BME280;19433;51.292;6.868;2023-01-28T21:45:18;101833.66;;;-5.17;100.00
33075;BME280;19433;51.292;6.868;2023-01-28T21:47:43;101821.47;;;-5.06;100.00
33075;BME280;19433;51.292;6.868;2023-01-28T21:50:10;101819.66;;;-5.05;100.00
33075;BME280;19433;51.292;6.868;2023-01-28T21:52:36;101836.19;;;-4.94;100.00
33075;BME280;19433;51.292;6.868;2023-01-28T21:55:02;101823.94;;;-5.20;100.00
33075;BME280;19433;51.292;6.868;2023-01-28T21:57:27;101822.38;;;-5.25;100.00
33075;BME280;19433;51.292;6.868;2023-01-28T21:59:52;101829.53;;;-5.24;100.00
33075;BME280;19433;51.292;6.868;2023-01-28T22:02:18;101823.06;;;-5.20;100.00
33075;BME280;19433;51.292;6.868;2023-01-28T22:04:44;101836.78;;;-5.26;100.00
33075;BME280;19433;51.292;6.868;2023-01-28T22:07:17;101836.69;;;-5.44;100.00
33075;BME280;19433;51.292;6.868;2023-01-28T22:09:45;101851.03;;;-5.43;100.00
33075;BME280;19433;51.292;6.868;2023-01-28T22:12:12;101838.63;;;-5.47;100.00
33075;BME280;19433;51.292;6.868;2023-01-28T22:14:40;101845.78;;;-5.46;100.00
33075;BME280;19433;51.292;6.868;2023-01-28T22:17:06;101853.47;;;-5.37;100.00
33075;BME280;19433;51.292;6.868;2023-01-28T22:19:33;101858.03;;;-5.39;100.00
33075;BME280;19433;51.292;6.868;2023-01-28T22:21:59;101859.84;;;-5.40;100.00
33075;BME280;19433;51.292;6.868;2023-01-28T22:24:25;101867.31;;;-5.46;100.00
33075;BME280;19433;51.292;6.868;2023-01-28T22:26:52;101855.09;;;-5.53;100.00
33075;BME280;19433;51.292;6.868;2023-01-28T22:29:19;101847.66;;;-5.48;100.00
33075;BME280;19433;51.292;6.868;2023-01-28T22:31:46;101848.75;;;-5.52;100.00
33075;BME280;19433;51.292;6.868;2023-01-28T22:34:12;101852.59;;;-5.58;100.00
33075;BME280;19433;51.292;6.868;2023-01-28T22:36:38;101859.91;;;-5.41;100.00
33075;BME280;19433;51.292;6.868;2023-01-28T22:39:05;101860.66;;;-5.38;100.00
33075;BME280;19433;51.292;6.868;2023-01-28T22:41:31;101856.59;;;-5.48;100.00
33075;BME280;19433;51.292;6.868;2023-01-28T22:43:56;101865.63;;;-5.49;100.00
33075;BME280;19433;51.292;6.868;2023-01-28T22:46:23;101858.84;;;-5.57;100.00
33075;BME280;19433;51.292;6.868;2023-01-28T22:48:49;101857.16;;;-5.60;100.00
33075;BME280;19433;51.292;6.868;2023-01-28T22:51:25;101855.59;;;-5.45;100.00
33075;BME280;19433;51.292;6.868;2023-01-28T22:53:51;101829.06;;;-5.34;100.00
33075;BME280;19433;51.292;6.868;2023-01-28T22:56:19;101863.34;;;-5.38;100.00
33075;BME280;19433;51.292;6.868;2023-01-28T22:58:45;101863.06;;;-5.32;100.00
33075;BME280;19433;51.292;6.868;2023-01-28T23:01:11;101854.91;;;-5.30;100.00
33075;BME280;19433;51.292;6.868;2023-01-28T23:03:49;101853.22;;;-5.33;100.00